createdAt,value
2022-10-07T00:01:07.103Z,2.97
2022-10-07T00:03:35.701Z,5.80
2022-10-07T00:06:06.850Z,8.37
2022-10-07T00:08:36.498Z,4.50
2022-10-07T00:11:06.718Z,7.63
2022-10-07T00:13:36.329Z,9.90
2022-10-07T00:16:07.459Z,8.23
2022-10-07T00:18:36.354Z,3.60
2022-10-07T00:21:06.613Z,7.83
2022-10-07T00:23:34.502Z,7.87
2022-10-07T00:26:02.916Z,8.73
2022-10-07T00:28:30.908Z,6.27
2022-10-07T00:30:59.453Z,5.67
2022-10-07T00:33:31.775Z,3.60
2022-10-07T00:35:59.659Z,5.90
2022-10-07T00:38:27.680Z,6.03
2022-10-07T00:40:55.508Z,5.23
2022-10-07T00:43:26.372Z,9.53
2022-10-07T00:45:56.192Z,6.47
2022-10-07T00:48:28.232Z,5.10
2022-10-07T00:50:59.582Z,6.13
2022-10-07T00:53:31.296Z,5.07
2022-10-07T00:56:02.790Z,8.87
2022-10-07T00:58:32.277Z,5.17
2022-10-07T01:01:00.749Z,6.37
2022-10-07T01:03:29.129Z,5.10
2022-10-07T01:05:58.369Z,5.90
2022-10-07T01:08:26.421Z,5.27
2022-10-07T01:11:03.433Z,8.80
2022-10-07T01:13:36.689Z,9.93
2022-10-07T01:16:13.103Z,7.47
2022-10-07T01:18:49.502Z,5.07
2022-10-07T01:21:31.454Z,7.43
2022-10-07T01:24:10.564Z,10.30
2022-10-07T01:26:49.441Z,5.70
2022-10-07T01:29:23.202Z,10.30
2022-10-07T01:31:55.539Z,6.10
2022-10-07T01:34:26.413Z,5.30
2022-10-07T01:36:58.735Z,5.60
2022-10-07T01:39:31.466Z,11.17
2022-10-07T01:42:01.106Z,8.33
2022-10-07T01:44:31.408Z,8.00
2022-10-07T01:46:59.786Z,10.10
2022-10-07T01:49:27.851Z,7.57
2022-10-07T01:52:11.763Z,8.00
2022-10-07T01:54:51.174Z,6.30
2022-10-07T01:57:32.366Z,6.30
2022-10-07T02:00:08.295Z,8.03
2022-10-07T02:02:54.949Z,4.30
2022-10-07T02:05:31.441Z,9.27
2022-10-07T02:08:12.808Z,6.63
2022-10-07T02:10:52.728Z,5.27
2022-10-07T02:13:32.966Z,7.17
2022-10-07T02:16:10.138Z,5.17
2022-10-07T02:18:43.792Z,6.40
2022-10-07T02:21:12.630Z,5.87
2022-10-07T02:23:43.378Z,5.67
2022-10-07T02:26:13.898Z,7.47
2022-10-07T02:28:44.895Z,6.50
2022-10-07T02:31:18.024Z,8.07
2022-10-07T02:33:48.067Z,6.27
2022-10-07T02:36:22.243Z,8.47
2022-10-07T02:38:50.402Z,7.53
2022-10-07T02:41:32.128Z,8.30
2022-10-07T02:44:18.153Z,5.63
2022-10-07T02:46:50.705Z,8.97
2022-10-07T02:49:21.664Z,6.37
2022-10-07T02:51:55.598Z,5.57
2022-10-07T02:54:30.308Z,6.93
2022-10-07T02:57:00.668Z,8.27
2022-10-07T02:59:34.087Z,6.57
2022-10-07T03:02:04.734Z,5.67
2022-10-07T03:04:33.276Z,8.13
2022-10-07T03:07:01.851Z,6.03
2022-10-07T03:09:31.970Z,8.67
2022-10-07T03:12:00.569Z,9.13
2022-10-07T03:14:30.829Z,5.63
2022-10-07T03:16:58.646Z,9.13
2022-10-07T03:19:26.931Z,6.67
2022-10-07T03:21:57.021Z,6.97
2022-10-07T03:24:25.498Z,8.73
2022-10-07T03:26:54.348Z,5.17
2022-10-07T03:29:25.280Z,4.60
2022-10-07T03:31:55.354Z,5.27
2022-10-07T03:34:24.144Z,4.80
2022-10-07T03:36:52.009Z,7.97
2022-10-07T03:39:19.878Z,5.27
2022-10-07T03:41:50.094Z,9.30
2022-10-07T03:44:19.266Z,6.33
2022-10-07T03:46:58.813Z,8.27
2022-10-07T03:49:28.104Z,7.60
2022-10-07T03:51:56.685Z,4.63
2022-10-07T03:54:24.965Z,6.63
2022-10-07T03:56:53.015Z,4.87
2022-10-07T03:59:20.937Z,8.47
2022-10-07T04:01:50.006Z,3.77
2022-10-07T04:04:20.599Z,5.80
2022-10-07T04:06:49.199Z,5.07
2022-10-07T04:09:17.192Z,7.67
2022-10-07T04:11:45.015Z,10.10
2022-10-07T04:14:13.325Z,7.90
2022-10-07T04:16:42.082Z,6.43
2022-10-07T04:19:13.669Z,8.10
2022-10-07T04:21:44.333Z,7.80
2022-10-07T04:24:12.685Z,7.33
2022-10-07T04:26:40.562Z,9.27
2022-10-07T04:29:08.413Z,8.73
2022-10-07T04:31:37.354Z,6.10
2022-10-07T04:34:06.814Z,7.60
2022-10-07T04:36:41.255Z,8.80
2022-10-07T04:39:14.019Z,7.33
2022-10-07T04:41:48.501Z,8.67
2022-10-07T04:44:21.390Z,7.40
2022-10-07T04:46:56.781Z,5.10
2022-10-07T04:49:27.158Z,7.30
2022-10-07T04:51:56.681Z,8.90
2022-10-07T04:54:28.548Z,8.80
2022-10-07T04:56:57.438Z,6.77
2022-10-07T04:59:29.975Z,5.63
2022-10-07T05:01:58.675Z,8.30
2022-10-07T05:04:27.639Z,8.20
2022-10-07T05:06:56.905Z,4.53
2022-10-07T05:09:25.897Z,8.43
2022-10-07T05:11:56.180Z,5.57
2022-10-07T05:14:24.893Z,6.27
2022-10-07T05:16:53.935Z,5.87
2022-10-07T05:19:26.525Z,6.40
2022-10-07T05:21:56.594Z,7.00
2022-10-07T05:24:26.489Z,6.17
2022-10-07T05:26:56.151Z,5.07
2022-10-07T05:29:24.102Z,7.87
2022-10-07T05:31:54.621Z,7.97
2022-10-07T05:34:25.741Z,7.47
2022-10-07T05:36:55.216Z,7.17
2022-10-07T05:39:23.815Z,11.77
2022-10-07T05:42:07.656Z,5.23
2022-10-07T05:44:42.582Z,5.63
2022-10-07T05:47:11.911Z,5.83
2022-10-07T05:49:41.371Z,7.73
2022-10-07T05:52:09.301Z,5.47
2022-10-07T05:54:37.452Z,5.77
2022-10-07T05:57:07.009Z,7.33
2022-10-07T05:59:35.757Z,4.77
2022-10-07T06:02:05.275Z,9.43
2022-10-07T06:04:37.091Z,6.53
2022-10-07T06:07:05.336Z,5.73
2022-10-07T06:09:51.275Z,11.23
2022-10-07T06:12:38.429Z,4.77
2022-10-07T06:15:12.498Z,5.73
2022-10-07T06:17:45.063Z,7.13
2022-10-07T06:20:15.749Z,6.03
2022-10-07T06:22:45.008Z,9.40
2022-10-07T06:25:14.933Z,5.90
2022-10-07T06:27:49.696Z,6.33
2022-10-07T06:30:21.114Z,9.57
2022-10-07T06:32:49.611Z,7.10
2022-10-07T06:35:18.055Z,5.60
2022-10-07T06:37:46.250Z,9.20
2022-10-07T06:40:14.519Z,5.83
2022-10-07T06:42:45.706Z,7.40
2022-10-07T06:45:24.755Z,6.73
2022-10-07T06:47:54.382Z,9.77
2022-10-07T06:50:23.669Z,11.77
2022-10-07T06:52:51.596Z,5.53
2022-10-07T06:55:19.518Z,7.03
2022-10-07T06:57:49.886Z,8.40
2022-10-07T07:00:20.554Z,13.00
2022-10-07T07:02:49.301Z,7.00
2022-10-07T07:05:17.903Z,10.40
2022-10-07T07:07:47.944Z,11.93
2022-10-07T07:10:17.107Z,15.07
2022-10-07T07:12:50.167Z,21.27
2022-10-07T07:15:18.457Z,10.67
2022-10-07T07:17:46.943Z,12.07
2022-10-07T07:20:15.658Z,13.07
2022-10-07T07:22:44.118Z,20.13
2022-10-07T07:25:12.477Z,10.60
2022-10-07T07:27:41.193Z,12.20
2022-10-07T07:30:14.037Z,11.70
2022-10-07T07:32:43.848Z,11.47
2022-10-07T07:35:11.800Z,16.87
2022-10-07T07:37:39.701Z,12.53
2022-10-07T07:40:09.379Z,12.27
2022-10-07T07:42:38.128Z,15.67
2022-10-07T07:45:08.772Z,11.60
2022-10-07T07:47:38.580Z,7.60
2022-10-07T07:50:08.682Z,15.63
2022-10-07T07:52:36.606Z,15.07
2022-10-07T07:55:07.393Z,11.00
2022-10-07T07:57:36.901Z,13.23
2022-10-07T08:00:11.558Z,10.93
2022-10-07T08:02:43.610Z,10.47
2022-10-07T08:05:19.033Z,9.90
2022-10-07T08:07:52.318Z,6.60
2022-10-07T08:10:21.308Z,7.70
2022-10-07T08:12:49.194Z,6.53
2022-10-07T08:15:17.243Z,9.47
2022-10-07T08:17:47.482Z,6.83
2022-10-07T08:20:16.361Z,7.90
2022-10-07T08:22:45.943Z,7.13
2022-10-07T08:25:16.756Z,5.07
2022-10-07T08:27:45.749Z,8.30
2022-10-07T08:30:14.779Z,8.50
2022-10-07T08:32:42.781Z,6.97
2022-10-07T08:35:12.059Z,7.30
2022-10-07T08:37:39.916Z,7.10
2022-10-07T08:40:14.444Z,7.07
2022-10-07T08:42:44.813Z,6.27
2022-10-07T08:45:17.948Z,5.47
2022-10-07T08:47:48.468Z,5.67
2022-10-07T08:50:22.958Z,4.07
2022-10-07T08:52:55.018Z,7.87
2022-10-07T08:55:31.579Z,5.20
2022-10-07T08:58:23.616Z,7.47
2022-10-07T09:00:58.053Z,6.23
2022-10-07T09:03:37.557Z,5.67
2022-10-07T09:06:14.127Z,6.40
2022-10-07T09:08:45.935Z,5.63
2022-10-07T09:11:20.460Z,9.90
2022-10-07T09:13:51.929Z,9.43
2022-10-07T09:16:25.229Z,5.60
2022-10-07T09:18:56.820Z,4.87
2022-10-07T09:21:34.825Z,6.30
2022-10-07T09:24:16.688Z,4.90
2022-10-07T09:26:44.618Z,8.10
2022-10-07T09:29:12.734Z,7.67
2022-10-07T09:31:40.870Z,9.20
2022-10-07T09:34:15.899Z,10.23
2022-10-07T09:37:20.607Z,4.77
2022-10-07T09:39:51.794Z,5.70
2022-10-07T09:42:34.928Z,4.27
2022-10-07T09:45:07.065Z,4.90
2022-10-07T09:47:40.344Z,8.90
2022-10-07T09:50:31.944Z,7.00
2022-10-07T09:53:00.117Z,5.17
2022-10-07T09:55:37.476Z,5.87
2022-10-07T09:58:07.512Z,10.83
2022-10-07T10:00:43.822Z,9.97
2022-10-07T10:03:12.500Z,6.53
2022-10-07T10:05:42.105Z,4.80
2022-10-07T10:08:24.817Z,7.00
2022-10-07T10:10:55.914Z,6.63
2022-10-07T10:13:33.132Z,8.60
2022-10-07T10:16:02.017Z,7.47
2022-10-07T10:18:39.151Z,5.03
2022-10-07T10:21:21.937Z,13.03
2022-10-07T10:23:52.551Z,7.20
2022-10-07T10:26:37.606Z,5.50
2022-10-07T10:29:15.129Z,6.70
2022-10-07T10:32:04.404Z,5.77
2022-10-07T10:34:41.035Z,6.90
2022-10-07T10:37:18.402Z,5.73
2022-10-07T10:39:57.367Z,5.73
2022-10-07T10:42:36.869Z,5.13
2022-10-07T10:45:15.989Z,6.27
2022-10-07T10:48:00.800Z,5.80
2022-10-07T10:50:33.919Z,7.07
2022-10-07T10:53:14.832Z,8.30
2022-10-07T10:56:06.771Z,5.80
2022-10-07T10:58:47.078Z,6.60
2022-10-07T11:01:24.882Z,7.57
2022-10-07T11:04:18.297Z,6.53
2022-10-07T11:06:53.949Z,5.83
2022-10-07T11:09:31.016Z,6.80
2022-10-07T11:12:05.206Z,5.80
2022-10-07T11:14:45.558Z,4.93
2022-10-07T11:17:15.908Z,3.87
2022-10-07T11:19:49.681Z,9.48
2022-10-07T11:22:32.944Z,4.47
2022-10-07T11:25:08.495Z,6.53
2022-10-07T11:27:36.735Z,10.10
2022-10-07T11:30:16.443Z,7.27
2022-10-07T11:32:49.226Z,6.33
2022-10-07T11:35:25.599Z,5.43
2022-10-07T11:37:59.422Z,5.38
2022-10-07T11:40:30.942Z,7.43
2022-10-07T11:43:07.189Z,5.27
2022-10-07T11:45:42.532Z,5.47
2022-10-07T11:48:15.438Z,7.45
2022-10-07T11:50:48.136Z,7.57
2022-10-07T11:53:20.176Z,4.53
2022-10-07T11:55:55.210Z,7.00
2022-10-07T11:58:26.547Z,8.20
2022-10-07T12:01:28.795Z,6.07
2022-10-07T12:04:24.933Z,8.45
2022-10-07T12:07:30.357Z,5.77
2022-10-07T12:10:23.310Z,9.70
2022-10-07T12:12:53.872Z,8.18
2022-10-07T12:15:34.302Z,8.40
2022-10-07T12:18:29.833Z,5.07
2022-10-07T12:21:09.397Z,6.18
2022-10-07T12:23:42.618Z,7.15
2022-10-07T12:26:51.945Z,7.43
2022-10-07T12:29:25.991Z,7.65
2022-10-07T12:31:53.974Z,7.90
2022-10-07T12:34:37.362Z,9.10
2022-10-07T12:37:44.869Z,7.25
2022-10-07T12:40:21.548Z,7.03
2022-10-07T12:42:55.042Z,5.77
2022-10-07T12:45:26.823Z,6.30
2022-10-07T12:47:58.355Z,7.23
2022-10-07T12:50:27.389Z,6.77
2022-10-07T12:52:58.779Z,6.50
2022-10-07T12:55:32.699Z,5.07
2022-10-07T12:58:15.725Z,6.60
2022-10-07T13:00:54.383Z,5.93
2022-10-07T13:04:07.085Z,8.33
2022-10-07T13:07:21.266Z,5.43
2022-10-07T13:10:18.062Z,5.43
2022-10-07T13:12:55.007Z,7.23
2022-10-07T13:15:31.432Z,5.10
2022-10-07T13:18:09.878Z,6.40
2022-10-07T13:20:45.509Z,7.73
2022-10-07T13:23:17.053Z,4.57
2022-10-07T13:25:48.480Z,5.23
2022-10-07T13:28:22.237Z,4.20
2022-10-07T13:30:51.617Z,4.90
2022-10-07T13:33:27.992Z,7.70
2022-10-07T13:36:13.746Z,6.40
2022-10-07T13:38:41.608Z,4.07
2022-10-07T13:41:16.173Z,8.00
2022-10-07T13:43:45.984Z,7.20
2022-10-07T13:46:16.774Z,4.82
2022-10-07T13:48:46.194Z,5.20
2022-10-07T13:51:21.733Z,5.75
2022-10-07T13:53:55.023Z,5.70
2022-10-07T13:56:26.044Z,5.30
2022-10-07T13:58:57.007Z,5.55
2022-10-07T14:01:27.161Z,5.22
2022-10-07T14:04:26.166Z,6.65
2022-10-07T14:07:01.831Z,7.45
2022-10-07T14:09:42.335Z,7.13
2022-10-07T14:12:14.956Z,5.03
2022-10-07T14:14:46.119Z,6.17
2022-10-07T14:17:24.721Z,8.38
2022-10-07T14:19:54.809Z,6.10
2022-10-07T14:22:30.102Z,8.00
2022-10-07T14:25:00.409Z,6.75
2022-10-07T14:27:53.789Z,7.27
2022-10-07T14:30:56.360Z,4.50
2022-10-07T14:34:00.392Z,5.57
2022-10-07T14:36:28.326Z,4.85
2022-10-07T14:38:59.742Z,7.75
2022-10-07T14:41:29.902Z,6.15
2022-10-07T14:43:59.897Z,4.68
2022-10-07T14:46:29.862Z,4.22
2022-10-07T14:48:57.793Z,4.78
2022-10-07T14:51:27.365Z,4.68
2022-10-07T14:53:59.262Z,3.80
2022-10-07T14:56:29.128Z,5.95
2022-10-07T14:58:56.992Z,6.35
2022-10-07T15:01:25.614Z,7.22
2022-10-07T15:03:54.930Z,6.32
2022-10-07T15:06:23.060Z,3.53
2022-10-07T15:08:51.203Z,7.63
2022-10-07T15:11:21.028Z,5.50
2022-10-07T15:13:50.240Z,9.33
2022-10-07T15:16:20.629Z,7.13
2022-10-07T15:18:52.327Z,8.47
2022-10-07T15:21:23.061Z,6.60
2022-10-07T15:23:52.612Z,5.87
2022-10-07T15:26:23.394Z,4.87
2022-10-07T15:28:52.352Z,5.67
2022-10-07T15:31:20.895Z,6.00
2022-10-07T15:33:49.205Z,5.07
2022-10-07T15:36:17.689Z,7.43
2022-10-07T15:38:46.935Z,8.37
2022-10-07T15:41:33.411Z,9.00
2022-10-07T15:44:03.182Z,7.73
2022-10-07T15:46:31.954Z,13.30
2022-10-07T15:49:00.524Z,7.90
2022-10-07T15:51:29.430Z,8.97
2022-10-07T15:53:59.055Z,11.10
2022-10-07T15:56:26.888Z,7.53
2022-10-07T15:58:54.804Z,7.03
2022-10-07T16:01:22.956Z,7.50
2022-10-07T16:03:51.105Z,9.13
2022-10-07T16:06:21.460Z,5.93
2022-10-07T16:08:50.200Z,6.27
2022-10-07T16:11:19.402Z,8.00
2022-10-07T16:13:48.522Z,7.53
2022-10-07T16:16:18.892Z,7.73
2022-10-07T16:18:48.403Z,8.40
2022-10-07T16:21:18.726Z,6.57
2022-10-07T16:23:47.734Z,7.00
2022-10-07T16:26:18.195Z,5.70
2022-10-07T16:29:06.746Z,7.07
2022-10-07T16:31:36.808Z,5.93
2022-10-07T16:34:05.182Z,11.67
2022-10-07T16:36:34.896Z,19.70
2022-10-07T16:39:03.641Z,14.90
2022-10-07T16:41:32.991Z,11.80
2022-10-07T16:44:02.701Z,8.33
2022-10-07T16:46:31.881Z,10.07
2022-10-07T16:49:00.425Z,8.23
2022-10-07T16:51:30.770Z,9.90
2022-10-07T16:54:03.263Z,12.33
2022-10-07T16:56:32.954Z,15.10
2022-10-07T16:59:03.697Z,17.13
2022-10-07T17:01:32.102Z,25.90
2022-10-07T17:04:01.802Z,14.00
2022-10-07T17:06:31.542Z,8.03
2022-10-07T17:09:02.905Z,9.23
2022-10-07T17:11:32.951Z,29.17
2022-10-07T17:14:04.290Z,20.40
2022-10-07T17:16:34.912Z,21.17
2022-10-07T17:19:03.139Z,33.57
2022-10-07T17:21:31.079Z,12.43
2022-10-07T17:23:59.141Z,15.40
2022-10-07T17:26:28.124Z,10.90
2022-10-07T17:29:00.830Z,12.10
2022-10-07T17:31:30.987Z,13.10
2022-10-07T17:33:59.656Z,15.20
2022-10-07T17:36:28.289Z,16.47
2022-10-07T17:38:56.236Z,16.60
2022-10-07T17:41:26.201Z,14.97
2022-10-07T17:43:57.118Z,13.03
2022-10-07T17:46:27.550Z,16.20
2022-10-07T17:48:58.095Z,23.93
2022-10-07T17:51:28.895Z,20.87
2022-10-07T17:53:57.573Z,26.67
2022-10-07T17:56:25.721Z,24.23
2022-10-07T17:58:53.944Z,20.93
2022-10-07T18:01:27.152Z,15.77
2022-10-07T18:03:57.837Z,8.93
2022-10-07T18:06:26.723Z,8.27
2022-10-07T18:08:54.649Z,8.07
2022-10-07T18:11:22.745Z,8.97
2022-10-07T18:14:08.475Z,8.67
2022-10-07T18:16:37.951Z,8.60
2022-10-07T18:19:07.850Z,11.60
2022-10-07T18:21:36.280Z,10.87
2022-10-07T18:24:08.646Z,11.93
2022-10-07T18:26:36.541Z,12.10
2022-10-07T18:29:04.393Z,10.40
2022-10-07T18:31:32.300Z,13.90
2022-10-07T18:34:00.228Z,11.57
2022-10-07T18:36:29.550Z,11.37
2022-10-07T18:38:57.923Z,10.87
2022-10-07T18:41:25.856Z,13.33
2022-10-07T18:43:56.728Z,9.83
2022-10-07T18:46:24.705Z,16.53
2022-10-07T18:48:52.679Z,10.27
2022-10-07T18:51:20.553Z,10.87
2022-10-07T18:53:49.879Z,17.07
2022-10-07T18:56:20.173Z,11.47
2022-10-07T18:58:49.879Z,9.90
2022-10-07T19:01:21.387Z,10.10
2022-10-07T19:03:50.433Z,13.87
2022-10-07T19:06:20.553Z,12.03
2022-10-07T19:08:56.013Z,12.13
2022-10-07T19:11:25.286Z,16.00
2022-10-07T19:13:57.989Z,18.13
2022-10-07T19:16:28.810Z,17.80
2022-10-07T19:18:59.008Z,16.40
2022-10-07T19:21:27.858Z,13.50
2022-10-07T19:24:01.653Z,12.33
2022-10-07T19:26:33.935Z,9.33
2022-10-07T19:29:02.602Z,10.43
2022-10-07T19:31:32.908Z,10.80
2022-10-07T19:34:03.578Z,12.60
2022-10-07T19:36:33.206Z,12.13
2022-10-07T19:39:03.302Z,11.20
2022-10-07T19:41:33.242Z,10.33
2022-10-07T19:44:01.535Z,8.77
2022-10-07T19:46:31.382Z,12.17
2022-10-07T19:49:01.187Z,10.30
2022-10-07T19:51:30.770Z,11.40
2022-10-07T19:53:59.583Z,16.50
2022-10-07T19:56:31.138Z,8.13
2022-10-07T19:59:08.663Z,8.27
2022-10-07T20:01:41.599Z,12.60
2022-10-07T20:04:13.307Z,10.17
2022-10-07T20:06:41.347Z,7.83
2022-10-07T20:09:10.935Z,11.87
2022-10-07T20:11:40.513Z,9.13
2022-10-07T20:14:09.906Z,9.80
2022-10-07T20:16:39.182Z,9.83
2022-10-07T20:19:09.042Z,10.10
2022-10-07T20:21:38.526Z,9.43
2022-10-07T20:24:08.738Z,12.60
2022-10-07T20:26:38.994Z,8.47
2022-10-07T20:29:11.703Z,10.13
2022-10-07T20:31:41.436Z,13.20
2022-10-07T20:34:14.259Z,10.10
2022-10-07T20:36:42.821Z,12.13
2022-10-07T20:39:34.103Z,10.03
2022-10-07T20:42:19.962Z,10.03
2022-10-07T20:44:49.941Z,11.67
2022-10-07T20:47:18.648Z,10.57
2022-10-07T20:49:48.435Z,11.93
2022-10-07T20:52:18.699Z,10.07
2022-10-07T20:54:48.029Z,11.90
2022-10-07T20:57:18.000Z,11.67
2022-10-07T20:59:46.164Z,10.90
2022-10-07T21:02:18.266Z,10.70
2022-10-07T21:04:47.984Z,12.50
2022-10-07T21:07:17.090Z,11.33
2022-10-07T21:09:45.354Z,11.77
2022-10-07T21:12:16.044Z,10.00
2022-10-07T21:14:44.214Z,10.23
2022-10-07T21:17:12.593Z,10.30
2022-10-07T21:19:41.843Z,11.90
2022-10-07T21:22:10.078Z,10.10
2022-10-07T21:24:38.105Z,10.13
2022-10-07T21:27:08.477Z,10.23
2022-10-07T21:29:40.757Z,9.97
2022-10-07T21:32:09.435Z,12.70
2022-10-07T21:34:37.574Z,8.03
2022-10-07T21:37:06.831Z,14.10
2022-10-07T21:39:34.732Z,13.40
2022-10-07T21:42:02.994Z,9.67
2022-10-07T21:44:33.133Z,9.47
2022-10-07T21:47:01.045Z,12.80
2022-10-07T21:49:28.962Z,11.30
2022-10-07T21:51:56.877Z,14.27
2022-10-07T21:54:26.214Z,11.60
2022-10-07T21:56:54.220Z,15.20
2022-10-07T21:59:22.165Z,10.57
2022-10-07T22:01:50.291Z,12.47
2022-10-07T22:04:19.624Z,12.90
2022-10-07T22:07:05.143Z,12.37
2022-10-07T22:09:35.651Z,12.27
2022-10-07T22:12:03.594Z,12.27
2022-10-07T22:14:31.405Z,8.93
2022-10-07T22:16:59.338Z,13.53
2022-10-07T22:19:27.263Z,9.13
2022-10-07T22:21:55.274Z,9.93
2022-10-07T22:24:24.031Z,15.27
2022-10-07T22:26:53.351Z,13.73
2022-10-07T22:29:22.876Z,11.50
2022-10-07T22:31:50.880Z,13.57
2022-10-07T22:34:36.463Z,14.73
2022-10-07T22:37:05.367Z,10.87
2022-10-07T22:39:34.679Z,12.03
2022-10-07T22:42:03.966Z,12.70
2022-10-07T22:44:32.042Z,12.93
2022-10-07T22:47:00.362Z,11.93
2022-10-07T22:49:30.285Z,14.57
2022-10-07T22:51:59.476Z,16.20
2022-10-07T22:54:27.957Z,12.30
2022-10-07T22:56:55.966Z,9.97
2022-10-07T22:59:25.255Z,12.77
2022-10-07T23:01:53.404Z,11.80
2022-10-07T23:04:21.504Z,9.07
2022-10-07T23:06:49.547Z,12.90
2022-10-07T23:09:17.419Z,9.37
2022-10-07T23:11:45.659Z,12.90
2022-10-07T23:14:13.509Z,12.30
2022-10-07T23:16:43.884Z,12.27
2022-10-07T23:19:11.889Z,10.90
2022-10-07T23:21:39.831Z,11.93
2022-10-07T23:24:09.792Z,12.03
2022-10-07T23:26:38.635Z,12.80
2022-10-07T23:29:07.957Z,15.00
2022-10-07T23:31:35.967Z,10.70
2022-10-07T23:34:06.434Z,14.23
2022-10-07T23:36:35.118Z,12.90
2022-10-07T23:39:03.364Z,10.87
2022-10-07T23:41:32.505Z,12.07
2022-10-07T23:44:02.798Z,8.40
2022-10-07T23:46:33.703Z,10.53
2022-10-07T23:49:02.221Z,14.43
2022-10-07T23:51:32.357Z,14.67
2022-10-07T23:54:02.246Z,8.20
2022-10-07T23:56:30.972Z,11.53
2022-10-07T23:58:59.046Z,12.60
